Bastion — E5U2615 — position and weather

sailwx.info

Track history (hours):
 
Tides and Currents Weather Stations Pressure Air Temp Water Temp Dewpoint Dewpoint Depression Visibility Wind Speed Wind Dir Waves Ship Positions

Bastion

Last reported at 2017-Sep-11 04:53 UTC. Time now 2017-Sep-26 22:06 UTC.
Position S 28°05' E 153°51'.
Warning: this ship's position is 15 days out of date.

Length 20 m.

Type: Pleasure craft. MMSI: 518668000.

Date/timePositionNaut miles runAvg speedWind from/ knotsBaromVisibWave heightAir tempDewpointWater temp
2017-Sep-11 04:53S 28°05' E 153°51'4 9.2
2017-Sep-11 04:30S 28°04' E 153°47'5 9.2
2017-Sep-11 04:00S 28°02' E 153°42'5 8.9
2017-Sep-11 03:29S 27°60' E 153°37'11 7.2
2017-Sep-11 01:56S 27°57' E 153°25'1 3.2
2017-Sep-11 01:29S 27°58' E 153°25'0 0.0
2017-Sep-11 00:56S 27°58' E 153°25'0 0.0
2017-Sep-11 00:29S 27°58' E 153°25'0 0.0
2017-Sep-10 23:52S 27°58' E 153°25'0 0.1
2017-Sep-10 21:51S 27°58' E 153°25'0 0.1
2017-Sep-10 18:53S 27°58' E 153°25'0 0.0
2017-Sep-10 15:35S 27°58' E 153°25'0 0.0
2017-Sep-10 15:29S 27°58' E 153°25'0 0.0
2017-Sep-10 13:17S 27°58' E 153°25'0 0.0
2017-Sep-10 12:53S 27°58' E 153°25'0 0.0
2017-Sep-10 12:29S 27°58' E 153°25'0 0.0
2017-Sep-10 11:56S 27°58' E 153°25'0 0.0
2017-Sep-10 10:44S 27°58' E 153°25'0 0.0
2017-Sep-10 10:29S 27°58' E 153°25'0 0.0
2017-Sep-10 09:53S 27°58' E 153°25'0 0.0
2017-Sep-10 09:29S 27°58' E 153°25'0 0.0
2017-Sep-10 07:23S 27°58' E 153°25'0 0.0
2017-Sep-10 06:59S 27°58' E 153°25'0 0.0
2017-Sep-10 06:29S 27°58' E 153°25'0 0.0
2017-Sep-10 02:11S 27°58' E 153°25'0 0.0
2017-Sep-10 01:59S 27°58' E 153°25'0 0.0
2017-Sep-10 01:29S 27°58' E 153°25'0 0.0
2017-Sep-10 00:56S 27°58' E 153°25'0 0.0
2017-Sep-10 00:29S 27°58' E 153°25'0 0.0
2017-Sep-09 23:59S 27°58' E 153°25'0 0.0
2017-Sep-09 23:23S 27°58' E 153°25'0 0.0
2017-Sep-09 22:56S 27°58' E 153°25'0 0.0
2017-Sep-09 22:29S 27°58' E 153°25'0 0.0
2017-Sep-09 21:59S 27°58' E 153°25'0 0.0
2017-Sep-09 21:29S 27°58' E 153°25'0 0.0
2017-Sep-09 20:59S 27°58' E 153°25'0 0.0
2017-Sep-09 20:29S 27°58' E 153°25'0 0.0
2017-Sep-09 19:59S 27°58' E 153°25'0 0.0
2017-Sep-09 19:23S 27°58' E 153°25'0 0.0
2017-Sep-09 18:59S 27°58' E 153°25'0 0.0
2017-Sep-09 18:23S 27°58' E 153°25'0 0.0
2017-Sep-09 17:59S 27°58' E 153°25'0 0.0
2017-Sep-09 17:29S 27°58' E 153°25'0 0.0
2017-Sep-09 16:59S 27°58' E 153°25'0 0.0
2017-Sep-09 16:23S 27°58' E 153°25'0 0.0
2017-Sep-09 15:59S 27°58' E 153°25'0 0.0
2017-Sep-09 15:29S 27°58' E 153°25'0 0.0
2017-Sep-09 14:59S 27°58' E 153°25'0 0.0
2017-Sep-09 14:29S 27°58' E 153°25'0 0.0
2017-Sep-09 13:59S 27°58' E 153°25'0 0.0
2017-Sep-09 13:29S 27°58' E 153°25'0 0.0
2017-Sep-09 12:56S 27°58' E 153°25'0 0.0
2017-Sep-09 12:29S 27°58' E 153°25'0 0.0
2017-Sep-09 11:59S 27°58' E 153°25'0 0.0
2017-Sep-09 11:29S 27°58' E 153°25'0 0.0
2017-Sep-09 10:53S 27°58' E 153°25'0 0.0
2017-Sep-09 10:23S 27°58' E 153°25'0 0.0
2017-Sep-09 09:59S 27°58' E 153°25'0 0.0
2017-Sep-09 09:23S 27°58' E 153°25'0 0.0
2017-Sep-09 08:59S 27°58' E 153°25'0 0.0
2017-Sep-09 08:29S 27°58' E 153°25'0 0.0
2017-Sep-09 07:53S 27°58' E 153°25'0 0.0
2017-Sep-09 07:23S 27°58' E 153°25'0 0.0
2017-Sep-09 06:47S 27°58' E 153°25'0 0.0
2017-Sep-09 05:35S 27°58' E 153°25'0 0.0
2017-Sep-09 05:23S 27°58' E 153°25'0 0.0
2017-Sep-09 04:23S 27°58' E 153°25'0 0.0
2017-Sep-09 01:29S 27°58' E 153°25'0 0.0
2017-Sep-09 00:59S 27°58' E 153°25'0 0.0
2017-Sep-09 00:29S 27°58' E 153°25'0 0.0
2017-Sep-08 15:41S 27°58' E 153°25'0 0.0
2017-Sep-08 15:29S 27°58' E 153°25'0 0.0
2017-Sep-08 14:59S 27°58' E 153°25'0 0.0
2017-Sep-08 07:53S 27°58' E 153°25'0 0.0
2017-Sep-08 07:29S 27°58' E 153°25'0 0.0
2017-Sep-08 06:59S 27°58' E 153°25'0 0.0
2017-Sep-08 06:29S 27°58' E 153°25'0 0.0
2017-Sep-08 05:59S 27°58' E 153°25'0 0.0
2017-Sep-08 05:29S 27°58' E 153°25'0 0.0
2017-Sep-08 04:59S 27°58' E 153°25'0 0.0
2017-Sep-08 04:29S 27°58' E 153°25'0 0.0
2017-Sep-08 03:59S 27°58' E 153°25'0 0.0
2017-Sep-08 03:29S 27°58' E 153°25'0 0.0
2017-Sep-08 02:59S 27°58' E 153°25'0 0.0
2017-Sep-08 02:29S 27°58' E 153°25'0 0.0
2017-Sep-08 01:59S 27°58' E 153°25'0 0.0
2017-Sep-08 01:29S 27°58' E 153°25'0 0.0
2017-Sep-08 00:59S 27°58' E 153°25'0 0.0
2017-Sep-08 00:26S 27°58' E 153°25'0 0.0
2017-Sep-07 23:56S 27°58' E 153°25'0 0.0
2017-Sep-07 23:29S 27°58' E 153°25'0 0.0
2017-Sep-07 22:59S 27°58' E 153°25'0 0.0
2017-Sep-07 22:29S 27°58' E 153°25'0 0.0
2017-Sep-07 21:59S 27°58' E 153°25'0 0.0
2017-Sep-07 21:26S 27°58' E 153°25'0 0.0
2017-Sep-07 20:59S 27°58' E 153°25'0 0.0
2017-Sep-07 20:29S 27°58' E 153°25'0 0.0
2017-Sep-07 19:56S 27°58' E 153°25'0 0.0
2017-Sep-07 19:29S 27°58' E 153°25'0 0.0
2017-Sep-07 18:59S 27°58' E 153°25'0 0.0
2017-Sep-07 18:29S 27°58' E 153°25'0 0.0
2017-Sep-07 17:59S 27°58' E 153°25'0 0.0
2017-Sep-07 17:17S 27°58' E 153°25'0 0.0
2017-Sep-07 16:56S 27°58' E 153°25'0 0.0
2017-Sep-07 16:29S 27°58' E 153°25'0 0.0
2017-Sep-07 15:53S 27°58' E 153°25'0 0.0
2017-Sep-07 15:29S 27°58' E 153°25'0 0.0
2017-Sep-07 14:56S 27°58' E 153°25'0 0.0
2017-Sep-07 14:29S 27°58' E 153°25'0 0.0
2017-Sep-07 13:50S 27°58' E 153°25'0 0.0
2017-Sep-07 13:29S 27°58' E 153°25'0 0.0
2017-Sep-07 12:47S 27°58' E 153°25'0 0.0
2017-Sep-07 12:29S 27°58' E 153°25'0 0.0
2017-Sep-07 11:56S 27°58' E 153°25'0 0.0
2017-Sep-07 11:26S 27°58' E 153°25'0 0.0
2017-Sep-07 10:59S 27°58' E 153°25'0 0.0
2017-Sep-07 10:14S 27°58' E 153°25'0 0.0
2017-Sep-07 09:59S 27°58' E 153°25'0 0.0
2017-Sep-07 09:29S 27°58' E 153°25'0 0.0
2017-Sep-07 08:53S 27°58' E 153°25'0 0.0
2017-Sep-07 05:29S 27°58' E 153°25'0 0.0
2017-Sep-07 04:53S 27°58' E 153°25'0 0.0
2017-Sep-07 03:26S 27°58' E 153°25'0 0.0
2017-Sep-07 02:59S 27°58' E 153°25'0 0.0
2017-Sep-07 02:29S 27°58' E 153°25'0 0.0
2017-Sep-07 01:56S 27°58' E 153°25'0 0.0
2017-Sep-07 01:29S 27°58' E 153°25'0 0.0
2017-Sep-07 00:59S 27°58' E 153°25'0 0.0
2017-Sep-07 00:26S 27°58' E 153°25'0 0.0
2017-Sep-06 23:59S 27°58' E 153°25'0 0.0
2017-Sep-06 23:29S 27°58' E 153°25'0 0.0
2017-Sep-06 22:59S 27°58' E 153°25'0 0.0
2017-Sep-06 22:29S 27°58' E 153°25'0 0.0
2017-Sep-06 21:59S 27°58' E 153°25'0 0.0
2017-Sep-06 21:29S 27°58' E 153°25'0 0.0
2017-Sep-06 19:35S 27°58' E 153°25'0 0.0
2017-Sep-06 19:23S 27°58' E 153°25'0 0.0
2017-Sep-06 18:53S 27°58' E 153°25'0 0.0
2017-Sep-06 17:35S 27°58' E 153°25'0 0.0
2017-Sep-06 17:23S 27°58' E 153°25'0 0.0
2017-Sep-06 16:59S 27°58' E 153°25'0 0.0
2017-Sep-06 16:11S 27°58' E 153°25'0 0.0
2017-Sep-06 14:47S 27°58' E 153°25'0 0.0
2017-Sep-06 14:23S 27°58' E 153°25'0 0.0
2017-Sep-06 13:17S 27°58' E 153°25'0 0.0
2017-Sep-06 12:50S 27°58' E 153°25'0 0.0
2017-Sep-06 12:23S 27°58' E 153°25'0 0.0
2017-Sep-06 11:56S 27°58' E 153°25'0 0.0
2017-Sep-06 11:29S 27°58' E 153°25'0 0.0
2017-Sep-06 10:56S 27°58' E 153°25'0 0.0
2017-Sep-06 09:29S 27°58' E 153°25'0 0.0
2017-Sep-06 08:53S 27°58' E 153°25'0 0.0
2017-Sep-06 08:14S 27°58' E 153°25'0 0.0
2017-Sep-06 07:59S 27°58' E 153°25'0 0.0
2017-Sep-06 07:23S 27°58' E 153°25'0 0.0
2017-Sep-06 06:47S 27°58' E 153°25'0 0.0
2017-Sep-06 06:23S 27°58' E 153°25'0 0.0
2017-Sep-06 05:53S 27°58' E 153°25'0 0.0
2017-Sep-06 05:29S 27°58' E 153°25'0 0.0
2017-Sep-06 04:41S 27°58' E 153°25'0 0.0
2017-Sep-06 04:23S 27°58' E 153°25'0 0.0
2017-Sep-06 03:53S 27°58' E 153°25'0 0.0
2017-Sep-06 03:23S 27°58' E 153°25'0 0.0
2017-Sep-06 01:59S 27°58' E 153°25'0 0.0
2017-Sep-06 01:29S 27°58' E 153°25'0 0.0
2017-Sep-06 00:59S 27°58' E 153°25'0 0.0
2017-Sep-06 00:29S 27°58' E 153°25'0 0.0
2017-Sep-05 23:59S 27°58' E 153°25'0 0.0
2017-Sep-05 23:29S 27°58' E 153°25'0 0.0
2017-Sep-05 22:59S 27°58' E 153°25'0 0.0
2017-Sep-05 22:29S 27°58' E 153°25'0 0.0
2017-Sep-05 21:59S 27°58' E 153°25'0 0.0
2017-Sep-05 21:26S 27°58' E 153°25'0 0.0
2017-Sep-05 20:59S 27°58' E 153°25'0 0.0
2017-Sep-05 20:29S 27°58' E 153°25'0 0.0
2017-Sep-05 19:59S 27°58' E 153°25'0 0.0
2017-Sep-05 19:14S 27°58' E 153°25'0 0.0
2017-Sep-05 18:59S 27°58' E 153°25'0 0.0
2017-Sep-05 18:29S 27°58' E 153°25'0 0.0
2017-Sep-05 17:53S 27°58' E 153°25'0 0.0
2017-Sep-05 17:17S 27°58' E 153°25'0 0.0
2017-Sep-05 16:53S 27°58' E 153°25'0 0.0
2017-Sep-05 13:38S 27°58' E 153°25'0 0.0
2017-Sep-05 13:17S 27°58' E 153°25'0 0.0
2017-Sep-05 12:59S 27°58' E 153°25'0 0.0
2017-Sep-05 12:14S 27°58' E 153°25'0 0.0
2017-Sep-05 11:53S 27°58' E 153°25'0 0.0
2017-Sep-05 11:29S 27°58' E 153°25'0 0.0
2017-Sep-05 10:05S 27°58' E 153°25'0 0.0
2017-Sep-05 09:56S 27°58' E 153°25'0 0.0
2017-Sep-05 09:29S 27°58' E 153°25'0 0.0
2017-Sep-05 08:41S 27°58' E 153°25'0 0.0
2017-Sep-05 08:29S 27°58' E 153°25'0 0.0
2017-Sep-05 07:47S 27°58' E 153°25'0 0.0
2017-Sep-05 07:20S 27°58' E 153°25'0 0.0
2017-Sep-05 03:53S 27°58' E 153°25'0 0.0
2017-Sep-05 03:23S 27°58' E 153°25'0 0.0
2017-Sep-05 02:53S 27°58' E 153°25'0 0.0
2017-Sep-05 02:23S 27°58' E 153°25'0 0.0
2017-Sep-05 01:53S 27°58' E 153°25'0 0.0
2017-Sep-05 00:23S 27°58' E 153°25'0 0.0
2017-Sep-04 23:59S 27°58' E 153°25'0 0.0
2017-Sep-04 23:23S 27°58' E 153°25'0 0.0
2017-Sep-04 22:59S 27°58' E 153°25'0 0.0
2017-Sep-04 22:23S 27°58' E 153°25'0 0.0
2017-Sep-04 21:59S 27°58' E 153°25'0 0.0
2017-Sep-04 21:29S 27°58' E 153°25'0 0.0
2017-Sep-04 20:59S 27°58' E 153°25'0 0.0
2017-Sep-04 20:26S 27°58' E 153°25'0 0.0
2017-Sep-04 19:59S 27°58' E 153°25'0 0.0
2017-Sep-04 19:29S 27°58' E 153°25'0 0.0
2017-Sep-04 18:56S 27°58' E 153°25'0 0.0
2017-Sep-04 18:29S 27°58' E 153°25'0 0.0
2017-Sep-04 17:59S 27°58' E 153°25'0 0.0
2017-Sep-04 17:29S 27°58' E 153°25'0 0.0
2017-Sep-04 16:59S 27°58' E 153°25'0 0.0
2017-Sep-04 16:29S 27°58' E 153°25'0 0.0
2017-Sep-04 15:59S 27°58' E 153°25'0 0.0
2017-Sep-04 15:29S 27°58' E 153°25'0 0.0
2017-Sep-04 14:59S 27°58' E 153°25'0 0.0
2017-Sep-04 14:29S 27°58' E 153°25'0 0.0
2017-Sep-04 13:56S 27°58' E 153°25'0 0.0
2017-Sep-04 13:17S 27°58' E 153°25'0 0.0
2017-Sep-04 11:53S 27°58' E 153°25'0 0.0
2017-Sep-04 11:29S 27°58' E 153°25'0 0.0
2017-Sep-04 10:53S 27°58' E 153°25'0 0.0
2017-Sep-04 10:29S 27°58' E 153°25'0 0.0
2017-Sep-04 09:59S 27°58' E 153°25'0 0.0
2017-Sep-04 09:29S 27°58' E 153°25'0 0.0
2017-Sep-04 08:59S 27°58' E 153°25'0 0.0
2017-Sep-04 08:29S 27°58' E 153°25'0 0.0
2017-Sep-04 07:59S 27°58' E 153°25'0 0.0
2017-Sep-04 07:29S 27°58' E 153°25'0 0.0
2017-Sep-04 06:59S 27°58' E 153°25'0 0.0
2017-Sep-04 06:23S 27°58' E 153°25'0 0.0
2017-Sep-04 05:59S 27°58' E 153°25'0 0.0
2017-Sep-04 05:23S 27°58' E 153°25'0 0.0
2017-Sep-04 04:38S 27°58' E 153°25'0 0.0
2017-Sep-04 04:20S 27°58' E 153°25'0 0.0
2017-Sep-04 03:56S 27°58' E 153°25'0 0.0
2017-Sep-04 03:17S 27°58' E 153°25'0 0.0
2017-Sep-04 02:53S 27°58' E 153°25'0 0.0
2017-Sep-04 02:23S 27°58' E 153°25'0 0.0
2017-Sep-04 01:53S 27°58' E 153°25'0 0.0
2017-Sep-04 01:29S 27°58' E 153°25'0 0.0
2017-Sep-04 00:59S 27°58' E 153°25'0 0.0
2017-Sep-04 00:29S 27°58' E 153°25'0 0.0
2017-Sep-03 23:59S 27°58' E 153°25'0 0.0
2017-Sep-03 23:29S 27°58' E 153°25'0 0.0
2017-Sep-03 22:59S 27°58' E 153°25'0 0.0
2017-Sep-03 22:23S 27°58' E 153°25'0 0.0
2017-Sep-03 21:59S 27°58' E 153°25'0 0.0
2017-Sep-03 21:11S 27°58' E 153°25'0 0.0
2017-Sep-03 19:20S 27°58' E 153°25'0 0.0
2017-Sep-03 17:41S 27°58' E 153°25'0 0.0
2017-Sep-03 17:23S 27°58' E 153°25'0 0.0
2017-Sep-03 16:59S 27°58' E 153°25'0 0.0
2017-Sep-03 16:17S 27°58' E 153°25'0 0.0
2017-Sep-03 15:59S 27°58' E 153°25'0 0.0
2017-Sep-03 15:29S 27°58' E 153°25'0 0.0
2017-Sep-03 14:35S 27°58' E 153°25'0 0.0
2017-Sep-03 13:47S 27°58' E 153°25'0 0.0
2017-Sep-03 10:56S 27°58' E 153°25'0 0.0
2017-Sep-03 09:29S 27°58' E 153°25'0 0.0
2017-Sep-03 08:59S 27°58' E 153°25'0 0.0
2017-Sep-03 08:20S 27°58' E 153°25'0 0.0
2017-Sep-03 07:56S 27°58' E 153°25'0 0.0
2017-Sep-03 07:23S 27°58' E 153°25'0 0.0
2017-Sep-03 06:56S 27°58' E 153°25'0 0.0
2017-Sep-03 06:26S 27°58' E 153°25'0 0.0
2017-Sep-03 05:59S 27°58' E 153°25'0 0.0
2017-Sep-03 05:11S 27°58' E 153°25'0 0.0
2017-Sep-03 03:47S 27°58' E 153°25'0 0.0
2017-Sep-03 03:11S 27°58' E 153°25'0 0.0
2017-Sep-03 02:59S 27°58' E 153°25'0 0.0
2017-Sep-03 02:17S 27°58' E 153°25'0 0.0
2017-Sep-03 01:47S 27°58' E 153°25'0 0.0
2017-Sep-03 01:05S 27°58' E 153°25'0 0.0
2017-Sep-03 00:59S 27°58' E 153°25'0 0.0
2017-Sep-03 00:26S 27°58' E 153°25'0 0.0
2017-Sep-02 23:59S 27°58' E 153°25'0 0.0
2017-Sep-02 23:20S 27°58' E 153°25'0 0.0
2017-Sep-02 22:53S 27°58' E 153°25'0 0.0
2017-Sep-02 22:23S 27°58' E 153°25'0 0.0
2017-Sep-02 21:56S 27°58' E 153°25'0 0.0
2017-Sep-02 21:11S 27°58' E 153°25'0 0.0
2017-Sep-02 20:59S 27°58' E 153°25'0 0.0
2017-Sep-02 20:29S 27°58' E 153°25'0 0.0
2017-Sep-02 19:53S 27°58' E 153°25'0 0.0
2017-Sep-02 19:29S 27°58' E 153°25'0 0.0
2017-Sep-02 18:53S 27°58' E 153°25'0 0.0
2017-Sep-02 18:26S 27°58' E 153°25'0 0.0
2017-Sep-02 17:56S 27°58' E 153°25'0 0.0
2017-Sep-02 17:11S 27°58' E 153°25'0 0.0
2017-Sep-02 16:59S 27°58' E 153°25'0 0.0
2017-Sep-02 16:29S 27°58' E 153°25'0 0.0
2017-Sep-02 14:35S 27°58' E 153°25'0 0.0
2017-Sep-02 14:17S 27°58' E 153°25'0 0.0
2017-Sep-02 13:47S 27°58' E 153°25'0 0.0
2017-Sep-02 13:17S 27°58' E 153°25'0 0.0
2017-Sep-02 11:05S 27°58' E 153°25'0 0.1
2017-Sep-02 10:59S 27°58' E 153°25'0 0.0
2017-Sep-02 10:29S 27°58' E 153°25'0 0.0
2017-Sep-02 09:59S 27°58' E 153°25'0 0.0
2017-Sep-02 09:26S 27°58' E 153°25'0 0.0
2017-Sep-02 07:23S 27°58' E 153°25'0 0.0
2017-Sep-02 05:53S 27°58' E 153°25'0 0.0
2017-Sep-02 05:23S 27°58' E 153°25'0 0.0
2017-Sep-02 02:50S 27°58' E 153°25'  
Track history (hours):
 
Tides and Currents Weather Stations Pressure Air Temp Water Temp Dewpoint Dewpoint Depression Visibility Wind Speed Wind Dir Waves Ship Positions

Bastion

Last reported at 2017-Sep-11 04:53 UTC. Time now 2017-Sep-26 22:06 UTC.
Position S 28°05' E 153°51'.
Warning: this ship's position is 15 days out of date.

Length 20 m.

Type: Pleasure craft. MMSI: 518668000.

Date/timePositionNaut miles runAvg speedWind from/ knotsBaromVisibWave heightAir tempDewpointWater temp
2017-Sep-11 04:53S 28°05' E 153°51'4 9.2
2017-Sep-11 04:30S 28°04' E 153°47'5 9.2
2017-Sep-11 04:00S 28°02' E 153°42'5 8.9
2017-Sep-11 03:29S 27°60' E 153°37'11 7.2
2017-Sep-11 01:56S 27°57' E 153°25'1 3.2
2017-Sep-11 01:29S 27°58' E 153°25'0 0.0
2017-Sep-11 00:56S 27°58' E 153°25'0 0.0
2017-Sep-11 00:29S 27°58' E 153°25'0 0.0
2017-Sep-10 23:52S 27°58' E 153°25'0 0.1
2017-Sep-10 21:51S 27°58' E 153°25'0 0.1
2017-Sep-10 18:53S 27°58' E 153°25'0 0.0
2017-Sep-10 15:35S 27°58' E 153°25'0 0.0
2017-Sep-10 15:29S 27°58' E 153°25'0 0.0
2017-Sep-10 13:17S 27°58' E 153°25'0 0.0
2017-Sep-10 12:53S 27°58' E 153°25'0 0.0
2017-Sep-10 12:29S 27°58' E 153°25'0 0.0
2017-Sep-10 11:56S 27°58' E 153°25'0 0.0
2017-Sep-10 10:44S 27°58' E 153°25'0 0.0
2017-Sep-10 10:29S 27°58' E 153°25'0 0.0
2017-Sep-10 09:53S 27°58' E 153°25'0 0.0
2017-Sep-10 09:29S 27°58' E 153°25'0 0.0
2017-Sep-10 07:23S 27°58' E 153°25'0 0.0
2017-Sep-10 06:59S 27°58' E 153°25'0 0.0
2017-Sep-10 06:29S 27°58' E 153°25'0 0.0
2017-Sep-10 02:11S 27°58' E 153°25'0 0.0
2017-Sep-10 01:59S 27°58' E 153°25'0 0.0
2017-Sep-10 01:29S 27°58' E 153°25'0 0.0
2017-Sep-10 00:56S 27°58' E 153°25'0 0.0
2017-Sep-10 00:29S 27°58' E 153°25'0 0.0
2017-Sep-09 23:59S 27°58' E 153°25'0 0.0
2017-Sep-09 23:23S 27°58' E 153°25'0 0.0
2017-Sep-09 22:56S 27°58' E 153°25'0 0.0
2017-Sep-09 22:29S 27°58' E 153°25'0 0.0
2017-Sep-09 21:59S 27°58' E 153°25'0 0.0
2017-Sep-09 21:29S 27°58' E 153°25'0 0.0
2017-Sep-09 20:59S 27°58' E 153°25'0 0.0
2017-Sep-09 20:29S 27°58' E 153°25'0 0.0
2017-Sep-09 19:59S 27°58' E 153°25'0 0.0
2017-Sep-09 19:23S 27°58' E 153°25'0 0.0
2017-Sep-09 18:59S 27°58' E 153°25'0 0.0
2017-Sep-09 18:23S 27°58' E 153°25'0 0.0
2017-Sep-09 17:59S 27°58' E 153°25'0 0.0
2017-Sep-09 17:29S 27°58' E 153°25'0 0.0
2017-Sep-09 16:59S 27°58' E 153°25'0 0.0
2017-Sep-09 16:23S 27°58' E 153°25'0 0.0
2017-Sep-09 15:59S 27°58' E 153°25'0 0.0
2017-Sep-09 15:29S 27°58' E 153°25'0 0.0
2017-Sep-09 14:59S 27°58' E 153°25'0 0.0
2017-Sep-09 14:29S 27°58' E 153°25'0 0.0
2017-Sep-09 13:59S 27°58' E 153°25'0 0.0
2017-Sep-09 13:29S 27°58' E 153°25'0 0.0
2017-Sep-09 12:56S 27°58' E 153°25'0 0.0
2017-Sep-09 12:29S 27°58' E 153°25'0 0.0
2017-Sep-09 11:59S 27°58' E 153°25'0 0.0
2017-Sep-09 11:29S 27°58' E 153°25'0 0.0
2017-Sep-09 10:53S 27°58' E 153°25'0 0.0
2017-Sep-09 10:23S 27°58' E 153°25'0 0.0
2017-Sep-09 09:59S 27°58' E 153°25'0 0.0
2017-Sep-09 09:23S 27°58' E 153°25'0 0.0
2017-Sep-09 08:59S 27°58' E 153°25'0 0.0
2017-Sep-09 08:29S 27°58' E 153°25'0 0.0
2017-Sep-09 07:53S 27°58' E 153°25'0 0.0
2017-Sep-09 07:23S 27°58' E 153°25'0 0.0
2017-Sep-09 06:47S 27°58' E 153°25'0 0.0
2017-Sep-09 05:35S 27°58' E 153°25'0 0.0
2017-Sep-09 05:23S 27°58' E 153°25'0 0.0
2017-Sep-09 04:23S 27°58' E 153°25'0 0.0
2017-Sep-09 01:29S 27°58' E 153°25'0 0.0
2017-Sep-09 00:59S 27°58' E 153°25'0 0.0
2017-Sep-09 00:29S 27°58' E 153°25'0 0.0
2017-Sep-08 15:41S 27°58' E 153°25'0 0.0
2017-Sep-08 15:29S 27°58' E 153°25'0 0.0
2017-Sep-08 14:59S 27°58' E 153°25'0 0.0
2017-Sep-08 07:53S 27°58' E 153°25'0 0.0
2017-Sep-08 07:29S 27°58' E 153°25'0 0.0
2017-Sep-08 06:59S 27°58' E 153°25'0 0.0
2017-Sep-08 06:29S 27°58' E 153°25'0 0.0
2017-Sep-08 05:59S 27°58' E 153°25'0 0.0
2017-Sep-08 05:29S 27°58' E 153°25'0 0.0
2017-Sep-08 04:59S 27°58' E 153°25'0 0.0
2017-Sep-08 04:29S 27°58' E 153°25'0 0.0
2017-Sep-08 03:59S 27°58' E 153°25'0 0.0
2017-Sep-08 03:29S 27°58' E 153°25'0 0.0
2017-Sep-08 02:59S 27°58' E 153°25'0 0.0
2017-Sep-08 02:29S 27°58' E 153°25'0 0.0
2017-Sep-08 01:59S 27°58' E 153°25'0 0.0
2017-Sep-08 01:29S 27°58' E 153°25'0 0.0
2017-Sep-08 00:59S 27°58' E 153°25'0 0.0
2017-Sep-08 00:26S 27°58' E 153°25'0 0.0
2017-Sep-07 23:56S 27°58' E 153°25'0 0.0
2017-Sep-07 23:29S 27°58' E 153°25'0 0.0
2017-Sep-07 22:59S 27°58' E 153°25'0 0.0
2017-Sep-07 22:29S 27°58' E 153°25'0 0.0
2017-Sep-07 21:59S 27°58' E 153°25'0 0.0
2017-Sep-07 21:26S 27°58' E 153°25'0 0.0
2017-Sep-07 20:59S 27°58' E 153°25'0 0.0
2017-Sep-07 20:29S 27°58' E 153°25'0 0.0
2017-Sep-07 19:56S 27°58' E 153°25'0 0.0
2017-Sep-07 19:29S 27°58' E 153°25'0 0.0
2017-Sep-07 18:59S 27°58' E 153°25'0 0.0
2017-Sep-07 18:29S 27°58' E 153°25'0 0.0
2017-Sep-07 17:59S 27°58' E 153°25'0 0.0
2017-Sep-07 17:17S 27°58' E 153°25'0 0.0
2017-Sep-07 16:56S 27°58' E 153°25'0 0.0
2017-Sep-07 16:29S 27°58' E 153°25'0 0.0
2017-Sep-07 15:53S 27°58' E 153°25'0 0.0
2017-Sep-07 15:29S 27°58' E 153°25'0 0.0
2017-Sep-07 14:56S 27°58' E 153°25'0 0.0
2017-Sep-07 14:29S 27°58' E 153°25'0 0.0
2017-Sep-07 13:50S 27°58' E 153°25'0 0.0
2017-Sep-07 13:29S 27°58' E 153°25'0 0.0
2017-Sep-07 12:47S 27°58' E 153°25'0 0.0
2017-Sep-07 12:29S 27°58' E 153°25'0 0.0
2017-Sep-07 11:56S 27°58' E 153°25'0 0.0
2017-Sep-07 11:26S 27°58' E 153°25'0 0.0
2017-Sep-07 10:59S 27°58' E 153°25'0 0.0
2017-Sep-07 10:14S 27°58' E 153°25'0 0.0
2017-Sep-07 09:59S 27°58' E 153°25'0 0.0
2017-Sep-07 09:29S 27°58' E 153°25'0 0.0
2017-Sep-07 08:53S 27°58' E 153°25'0 0.0
2017-Sep-07 05:29S 27°58' E 153°25'0 0.0
2017-Sep-07 04:53S 27°58' E 153°25'0 0.0
2017-Sep-07 03:26S 27°58' E 153°25'0 0.0
2017-Sep-07 02:59S 27°58' E 153°25'0 0.0
2017-Sep-07 02:29S 27°58' E 153°25'0 0.0
2017-Sep-07 01:56S 27°58' E 153°25'0 0.0
2017-Sep-07 01:29S 27°58' E 153°25'0 0.0
2017-Sep-07 00:59S 27°58' E 153°25'0 0.0
2017-Sep-07 00:26S 27°58' E 153°25'0 0.0
2017-Sep-06 23:59S 27°58' E 153°25'0 0.0
2017-Sep-06 23:29S 27°58' E 153°25'0 0.0
2017-Sep-06 22:59S 27°58' E 153°25'0 0.0
2017-Sep-06 22:29S 27°58' E 153°25'0 0.0
2017-Sep-06 21:59S 27°58' E 153°25'0 0.0
2017-Sep-06 21:29S 27°58' E 153°25'0 0.0
2017-Sep-06 19:35S 27°58' E 153°25'0 0.0
2017-Sep-06 19:23S 27°58' E 153°25'0 0.0
2017-Sep-06 18:53S 27°58' E 153°25'0 0.0
2017-Sep-06 17:35S 27°58' E 153°25'0 0.0
2017-Sep-06 17:23S 27°58' E 153°25'0 0.0
2017-Sep-06 16:59S 27°58' E 153°25'0 0.0
2017-Sep-06 16:11S 27°58' E 153°25'0 0.0
2017-Sep-06 14:47S 27°58' E 153°25'0 0.0
2017-Sep-06 14:23S 27°58' E 153°25'0 0.0
2017-Sep-06 13:17S 27°58' E 153°25'0 0.0
2017-Sep-06 12:50S 27°58' E 153°25'0 0.0
2017-Sep-06 12:23S 27°58' E 153°25'0 0.0
2017-Sep-06 11:56S 27°58' E 153°25'0 0.0
2017-Sep-06 11:29S 27°58' E 153°25'0 0.0
2017-Sep-06 10:56S 27°58' E 153°25'0 0.0
2017-Sep-06 09:29S 27°58' E 153°25'0 0.0
2017-Sep-06 08:53S 27°58' E 153°25'0 0.0
2017-Sep-06 08:14S 27°58' E 153°25'0 0.0
2017-Sep-06 07:59S 27°58' E 153°25'0 0.0
2017-Sep-06 07:23S 27°58' E 153°25'0 0.0
2017-Sep-06 06:47S 27°58' E 153°25'0 0.0
2017-Sep-06 06:23S 27°58' E 153°25'0 0.0
2017-Sep-06 05:53S 27°58' E 153°25'0 0.0
2017-Sep-06 05:29S 27°58' E 153°25'0 0.0
2017-Sep-06 04:41S 27°58' E 153°25'0 0.0
2017-Sep-06 04:23S 27°58' E 153°25'0 0.0
2017-Sep-06 03:53S 27°58' E 153°25'0 0.0
2017-Sep-06 03:23S 27°58' E 153°25'0 0.0
2017-Sep-06 01:59S 27°58' E 153°25'0 0.0
2017-Sep-06 01:29S 27°58' E 153°25'0 0.0
2017-Sep-06 00:59S 27°58' E 153°25'0 0.0
2017-Sep-06 00:29S 27°58' E 153°25'0 0.0
2017-Sep-05 23:59S 27°58' E 153°25'0 0.0
2017-Sep-05 23:29S 27°58' E 153°25'0 0.0
2017-Sep-05 22:59S 27°58' E 153°25'0 0.0
2017-Sep-05 22:29S 27°58' E 153°25'0 0.0
2017-Sep-05 21:59S 27°58' E 153°25'0 0.0
2017-Sep-05 21:26S 27°58' E 153°25'0 0.0
2017-Sep-05 20:59S 27°58' E 153°25'0 0.0
2017-Sep-05 20:29S 27°58' E 153°25'0 0.0
2017-Sep-05 19:59S 27°58' E 153°25'0 0.0
2017-Sep-05 19:14S 27°58' E 153°25'0 0.0
2017-Sep-05 18:59S 27°58' E 153°25'0 0.0
2017-Sep-05 18:29S 27°58' E 153°25'0 0.0
2017-Sep-05 17:53S 27°58' E 153°25'0 0.0
2017-Sep-05 17:17S 27°58' E 153°25'0 0.0
2017-Sep-05 16:53S 27°58' E 153°25'0 0.0
2017-Sep-05 13:38S 27°58' E 153°25'0 0.0
2017-Sep-05 13:17S 27°58' E 153°25'0 0.0
2017-Sep-05 12:59S 27°58' E 153°25'0 0.0
2017-Sep-05 12:14S 27°58' E 153°25'0 0.0
2017-Sep-05 11:53S 27°58' E 153°25'0 0.0
2017-Sep-05 11:29S 27°58' E 153°25'0 0.0
2017-Sep-05 10:05S 27°58' E 153°25'0 0.0
2017-Sep-05 09:56S 27°58' E 153°25'0 0.0
2017-Sep-05 09:29S 27°58' E 153°25'0 0.0
2017-Sep-05 08:41S 27°58' E 153°25'0 0.0
2017-Sep-05 08:29S 27°58' E 153°25'0 0.0
2017-Sep-05 07:47S 27°58' E 153°25'0 0.0
2017-Sep-05 07:20S 27°58' E 153°25'0 0.0
2017-Sep-05 03:53S 27°58' E 153°25'0 0.0
2017-Sep-05 03:23S 27°58' E 153°25'0 0.0
2017-Sep-05 02:53S 27°58' E 153°25'0 0.0
2017-Sep-05 02:23S 27°58' E 153°25'0 0.0
2017-Sep-05 01:53S 27°58' E 153°25'0 0.0
2017-Sep-05 00:23S 27°58' E 153°25'0 0.0
2017-Sep-04 23:59S 27°58' E 153°25'0 0.0
2017-Sep-04 23:23S 27°58' E 153°25'0 0.0
2017-Sep-04 22:59S 27°58' E 153°25'0 0.0
2017-Sep-04 22:23S 27°58' E 153°25'0 0.0
2017-Sep-04 21:59S 27°58' E 153°25'0 0.0
2017-Sep-04 21:29S 27°58' E 153°25'0 0.0
2017-Sep-04 20:59S 27°58' E 153°25'0 0.0
2017-Sep-04 20:26S 27°58' E 153°25'0 0.0
2017-Sep-04 19:59S 27°58' E 153°25'0 0.0
2017-Sep-04 19:29S 27°58' E 153°25'0 0.0
2017-Sep-04 18:56S 27°58' E 153°25'0 0.0
2017-Sep-04 18:29S 27°58' E 153°25'0 0.0
2017-Sep-04 17:59S 27°58' E 153°25'0 0.0
2017-Sep-04 17:29S 27°58' E 153°25'0 0.0
2017-Sep-04 16:59S 27°58' E 153°25'0 0.0
2017-Sep-04 16:29S 27°58' E 153°25'0 0.0
2017-Sep-04 15:59S 27°58' E 153°25'0 0.0
2017-Sep-04 15:29S 27°58' E 153°25'0 0.0
2017-Sep-04 14:59S 27°58' E 153°25'0 0.0
2017-Sep-04 14:29S 27°58' E 153°25'0 0.0
2017-Sep-04 13:56S 27°58' E 153°25'0 0.0
2017-Sep-04 13:17S 27°58' E 153°25'0 0.0
2017-Sep-04 11:53S 27°58' E 153°25'0 0.0
2017-Sep-04 11:29S 27°58' E 153°25'0 0.0
2017-Sep-04 10:53S 27°58' E 153°25'0 0.0
2017-Sep-04 10:29S 27°58' E 153°25'0 0.0
2017-Sep-04 09:59S 27°58' E 153°25'0 0.0
2017-Sep-04 09:29S 27°58' E 153°25'0 0.0
2017-Sep-04 08:59S 27°58' E 153°25'0 0.0
2017-Sep-04 08:29S 27°58' E 153°25'0 0.0
2017-Sep-04 07:59S 27°58' E 153°25'0 0.0
2017-Sep-04 07:29S 27°58' E 153°25'0 0.0
2017-Sep-04 06:59S 27°58' E 153°25'0 0.0
2017-Sep-04 06:23S 27°58' E 153°25'0 0.0
2017-Sep-04 05:59S 27°58' E 153°25'0 0.0
2017-Sep-04 05:23S 27°58' E 153°25'0 0.0
2017-Sep-04 04:38S 27°58' E 153°25'0 0.0
2017-Sep-04 04:20S 27°58' E 153°25'0 0.0
2017-Sep-04 03:56S 27°58' E 153°25'0 0.0
2017-Sep-04 03:17S 27°58' E 153°25'0 0.0
2017-Sep-04 02:53S 27°58' E 153°25'0 0.0
2017-Sep-04 02:23S 27°58' E 153°25'0 0.0
2017-Sep-04 01:53S 27°58' E 153°25'0 0.0
2017-Sep-04 01:29S 27°58' E 153°25'0 0.0
2017-Sep-04 00:59S 27°58' E 153°25'0 0.0
2017-Sep-04 00:29S 27°58' E 153°25'0 0.0
2017-Sep-03 23:59S 27°58' E 153°25'0 0.0
2017-Sep-03 23:29S 27°58' E 153°25'0 0.0
2017-Sep-03 22:59S 27°58' E 153°25'0 0.0
2017-Sep-03 22:23S 27°58' E 153°25'0 0.0
2017-Sep-03 21:59S 27°58' E 153°25'0 0.0
2017-Sep-03 21:11S 27°58' E 153°25'0 0.0
2017-Sep-03 19:20S 27°58' E 153°25'0 0.0
2017-Sep-03 17:41S 27°58' E 153°25'0 0.0
2017-Sep-03 17:23S 27°58' E 153°25'0 0.0
2017-Sep-03 16:59S 27°58' E 153°25'0 0.0
2017-Sep-03 16:17S 27°58' E 153°25'0 0.0
2017-Sep-03 15:59S 27°58' E 153°25'0 0.0
2017-Sep-03 15:29S 27°58' E 153°25'0 0.0
2017-Sep-03 14:35S 27°58' E 153°25'0 0.0
2017-Sep-03 13:47S 27°58' E 153°25'0 0.0
2017-Sep-03 10:56S 27°58' E 153°25'0 0.0
2017-Sep-03 09:29S 27°58' E 153°25'0 0.0
2017-Sep-03 08:59S 27°58' E 153°25'0 0.0
2017-Sep-03 08:20S 27°58' E 153°25'0 0.0
2017-Sep-03 07:56S 27°58' E 153°25'0 0.0
2017-Sep-03 07:23S 27°58' E 153°25'0 0.0
2017-Sep-03 06:56S 27°58' E 153°25'0 0.0
2017-Sep-03 06:26S 27°58' E 153°25'0 0.0
2017-Sep-03 05:59S 27°58' E 153°25'0 0.0
2017-Sep-03 05:11S 27°58' E 153°25'0 0.0
2017-Sep-03 03:47S 27°58' E 153°25'0 0.0
2017-Sep-03 03:11S 27°58' E 153°25'0 0.0
2017-Sep-03 02:59S 27°58' E 153°25'0 0.0
2017-Sep-03 02:17S 27°58' E 153°25'0 0.0
2017-Sep-03 01:47S 27°58' E 153°25'0 0.0
2017-Sep-03 01:05S 27°58' E 153°25'0 0.0
2017-Sep-03 00:59S 27°58' E 153°25'0 0.0
2017-Sep-03 00:26S 27°58' E 153°25'0 0.0
2017-Sep-02 23:59S 27°58' E 153°25'0 0.0
2017-Sep-02 23:20S 27°58' E 153°25'0 0.0
2017-Sep-02 22:53S 27°58' E 153°25'0 0.0
2017-Sep-02 22:23S 27°58' E 153°25'0 0.0
2017-Sep-02 21:56S 27°58' E 153°25'0 0.0
2017-Sep-02 21:11S 27°58' E 153°25'0 0.0
2017-Sep-02 20:59S 27°58' E 153°25'0 0.0
2017-Sep-02 20:29S 27°58' E 153°25'0 0.0
2017-Sep-02 19:53S 27°58' E 153°25'0 0.0
2017-Sep-02 19:29S 27°58' E 153°25'0 0.0
2017-Sep-02 18:53S 27°58' E 153°25'0 0.0
2017-Sep-02 18:26S 27°58' E 153°25'0 0.0
2017-Sep-02 17:56S 27°58' E 153°25'0 0.0
2017-Sep-02 17:11S 27°58' E 153°25'0 0.0
2017-Sep-02 16:59S 27°58' E 153°25'0 0.0
2017-Sep-02 16:29S 27°58' E 153°25'0 0.0
2017-Sep-02 14:35S 27°58' E 153°25'0 0.0
2017-Sep-02 14:17S 27°58' E 153°25'0 0.0
2017-Sep-02 13:47S 27°58' E 153°25'0 0.0
2017-Sep-02 13:17S 27°58' E 153°25'0 0.0
2017-Sep-02 11:05S 27°58' E 153°25'0 0.1
2017-Sep-02 10:59S 27°58' E 153°25'0 0.0
2017-Sep-02 10:29S 27°58' E 153°25'0 0.0
2017-Sep-02 09:59S 27°58' E 153°25'0 0.0
2017-Sep-02 09:26S 27°58' E 153°25'0 0.0
2017-Sep-02 07:23S 27°58' E 153°25'0 0.0
2017-Sep-02 05:53S 27°58' E 153°25'0 0.0
2017-Sep-02 05:23S 27°58' E 153°25'0 0.0
2017-Sep-02 02:50S 27°58' E 153°25'  

Dump ship's entire track history